Time;durP1;ratioP1;P1;durP2;ratioP2;P2;SDS_P1;SDS_P2;PMS_P1;PMS_P2;Temp;Humidity;BMP_temperature;BMP_pressure;BME280_temperature;BME280_humidity;BME280_pressure;Samples;Min_cycle;Max_cycle;Signal;HPM_P1;HPM_P2
2021/03/25 00:00:28;;;;;;;57.35;27.15;;;7.00;80.60;;;;;;4910240;29;20075;-64
2021/03/25 00:02:56;;;;;;;65.00;29.75;;;7.00;80.70;;;;;;4907957;29;20036;-64
2021/03/25 00:05:23;;;;;;;59.53;29.27;;;7.00;80.30;;;;;;4910514;29;20059;-64
2021/03/25 00:07:49;;;;;;;61.22;29.08;;;7.00;79.60;;;;;;4911175;29;20032;-64
2021/03/25 00:10:18;;;;;;;62.47;29.75;;;7.00;79.80;;;;;;4907916;29;20858;-64
2021/03/25 00:12:44;;;;;;;68.15;30.63;;;7.10;80.30;;;;;;4891428;29;20136;-64
2021/03/25 00:15:11;;;;;;;64.32;28.30;;;7.10;80.40;;;;;;4906607;29;20028;-64
2021/03/25 00:17:36;;;;;;;59.00;27.98;;;7.20;80.00;;;;;;4909239;29;20035;-64
2021/03/25 00:20:09;;;;;;;61.58;27.33;;;7.20;79.90;;;;;;4893531;29;20064;-64
2021/03/25 00:22:34;;;;;;;55.80;24.63;;;7.20;79.60;;;;;;4905586;29;20098;-64
2021/03/25 00:25:00;;;;;;;66.07;28.30;;;7.20;79.20;;;;;;4906858;29;20048;-64
2021/03/25 00:27:26;;;;;;;59.47;26.98;;;7.20;79.30;;;;;;4913906;29;20042;-64
2021/03/25 00:29:51;;;;;;;63.20;28.83;;;7.20;79.30;;;;;;4911769;29;20039;-64
2021/03/25 00:32:17;;;;;;;60.53;28.08;;;7.20;79.50;;;;;;4914446;29;20031;-64
2021/03/25 00:34:43;;;;;;;67.78;28.33;;;7.20;79.40;;;;;;4908214;29;20095;-64
2021/03/25 00:37:09;;;;;;;58.75;27.83;;;7.30;78.90;;;;;;4910527;29;20058;-64
2021/03/25 00:39:34;;;;;;;64.72;29.30;;;7.20;78.70;;;;;;4914594;29;20039;-65
2021/03/25 00:42:00;;;;;;;59.47;27.55;;;7.30;78.70;;;;;;4910773;29;20072;-64
2021/03/25 00:44:27;;;;;;;65.63;28.65;;;7.30;78.90;;;;;;4913857;29;20031;-64
2021/03/25 00:46:52;;;;;;;56.85;25.52;;;7.20;78.80;;;;;;4909606;29;20125;-64
2021/03/25 00:49:18;;;;;;;65.80;29.92;;;7.20;79.10;;;;;;4912247;29;20115;-64
2021/03/25 00:51:44;;;;;;;71.63;31.58;;;7.20;79.20;;;;;;4912370;29;20060;-64
2021/03/25 00:54:10;;;;;;;62.00;28.05;;;7.20;79.00;;;;;;4911262;29;20051;-64
2021/03/25 00:56:39;;;;;;;62.28;26.95;;;7.20;78.90;;;;;;4912515;29;20032;-64
2021/03/25 00:59:05;;;;;;;66.45;28.15;;;7.20;78.90;;;;;;4910395;29;20095;-64
2021/03/25 01:01:31;;;;;;;73.53;30.38;;;7.10;78.80;;;;;;4927734;29;20036;-64
2021/03/25 01:03:57;;;;;;;53.85;25.60;;;7.10;79.10;;;;;;4910709;29;20503;-64
2021/03/25 01:06:23;;;;;;;66.80;29.42;;;7.10;79.10;;;;;;4908855;29;20032;-65
2021/03/25 01:08:48;;;;;;;63.15;29.23;;;7.00;79.20;;;;;;4912936;29;20068;-64
2021/03/25 01:11:22;;;;;;;57.05;27.00;;;7.00;79.20;;;;;;4892430;29;20500;-64
2021/03/25 01:13:51;;;;;;;63.38;29.27;;;7.00;79.40;;;;;;4909130;29;20640;-64
2021/03/25 01:16:28;;;;;;;61.78;28.63;;;7.00;79.40;;;;;;4909095;29;20047;-64
2021/03/25 01:18:57;;;;;;;64.70;28.60;;;6.90;79.60;;;;;;4911710;29;20508;-64
2021/03/25 01:21:23;;;;;;;66.93;29.80;;;6.90;79.40;;;;;;4910043;29;20039;-65
2021/03/25 01:23:49;;;;;;;61.72;27.20;;;6.90;79.60;;;;;;4912251;29;20141;-64
2021/03/25 01:26:15;;;;;;;55.22;25.98;;;6.80;79.70;;;;;;4898995;29;20040;-64
2021/03/25 01:28:42;;;;;;;54.53;24.30;;;6.70;79.80;;;;;;4927068;29;20114;-64
2021/03/25 01:31:07;;;;;;;56.50;25.60;;;6.70;79.50;;;;;;4908630;29;20159;-65
2021/03/25 01:33:34;;;;;;;51.10;24.65;;;6.70;80.00;;;;;;4915445;29;20040;-65
2021/03/25 01:36:00;;;;;;;52.25;24.73;;;6.60;80.00;;;;;;4900131;29;20099;-65
2021/03/25 01:38:27;;;;;;;54.45;24.50;;;6.60;79.60;;;;;;4911131;29;20035;-64
2021/03/25 01:40:57;;;;;;;49.58;23.42;;;6.50;80.20;;;;;;4906648;29;20106;-64
2021/03/25 01:43:31;;;;;;;66.65;28.40;;;6.50;80.80;;;;;;4895532;29;20119;-64
2021/03/25 01:46:10;;;;;;;61.80;27.92;;;6.50;81.10;;;;;;4909510;29;20046;-64
2021/03/25 01:48:38;;;;;;;61.17;26.65;;;6.50;81.30;;;;;;4909113;29;20036;-64
2021/03/25 01:51:48;;;;;;;62.42;26.73;;;6.50;81.40;;;;;;4913730;29;20032;-64
2021/03/25 01:54:26;;;;;;;62.50;27.38;;;6.50;81.60;;;;;;4897926;29;20146;-64
2021/03/25 01:57:01;;;;;;;57.95;26.45;;;6.50;81.80;;;;;;4883121;29;20032;-64
2021/03/25 01:59:44;;;;;;;55.08;23.92;;;6.50;81.50;;;;;;4911538;29;20130;-64
2021/03/25 02:02:18;;;;;;;58.00;25.83;;;6.40;81.20;;;;;;4897047;29;20032;-64
2021/03/25 02:05:14;;;;;;;45.63;21.98;;;6.40;80.30;;;;;;4911765;29;20068;-64
2021/03/25 02:08:09;;;;;;;47.58;22.45;;;6.30;79.10;;;;;;4909760;29;20032;-64
2021/03/25 02:11:20;;;;;;;50.22;22.30;;;6.20;79.80;;;;;;4872014;29;20471;-64
2021/03/25 02:14:10;;;;;;;49.30;23.60;;;6.10;80.50;;;;;;4924282;29;20036;-65
2021/03/25 02:16:54;;;;;;;57.08;24.35;;;6.10;79.30;;;;;;4909465;29;20027;-64
2021/03/25 02:19:50;;;;;;;51.45;24.08;;;6.00;79.40;;;;;;4911032;29;20048;-64
2021/03/25 02:22:45;;;;;;;48.53;23.70;;;5.90;79.90;;;;;;4923237;29;20020;-64
2021/03/25 02:25:18;;;;;;;49.72;22.63;;;5.80;80.20;;;;;;4908280;29;20028;-64
2021/03/25 02:28:31;;;;;;;52.60;23.05;;;5.80;79.90;;;;;;4923715;29;20036;-64
2021/03/25 02:31:23;;;;;;;50.33;24.02;;;5.70;79.70;;;;;;4898867;29;20050;-64
2021/03/25 02:33:57;;;;;;;50.33;23.70;;;5.60;79.20;;;;;;4910508;29;20124;-64
2021/03/25 02:36:31;;;;;;;56.47;23.50;;;5.50;80.00;;;;;;4910738;29;20044;-64
2021/03/25 02:39:05;;;;;;;48.10;24.08;;;5.50;80.50;;;;;;4920960;29;20119;-64
2021/03/25 02:41:45;;;;;;;50.75;24.73;;;5.50;80.40;;;;;;4914365;29;20032;-65
2021/03/25 02:44:13;;;;;;;53.20;23.75;;;5.40;80.20;;;;;;4909020;29;20719;-65
2021/03/25 02:46:53;;;;;;;51.85;23.58;;;5.40;79.80;;;;;;4906614;29;20075;-64
2021/03/25 02:49:24;;;;;;;56.17;26.88;;;5.30;79.60;;;;;;4909241;29;20032;-64
2021/03/25 02:52:07;;;;;;;56.75;27.27;;;5.30;79.20;;;;;;4923531;29;20836;-64
2021/03/25 02:54:38;;;;;;;62.40;26.17;;;5.20;79.10;;;;;;4911157;29;20081;-64
2021/03/25 02:57:23;;;;;;;56.63;24.98;;;5.10;79.00;;;;;;4906967;29;20072;-64
2021/03/25 02:59:55;;;;;;;54.03;24.90;;;5.10;79.50;;;;;;4897218;29;20036;-64
2021/03/25 03:02:31;;;;;;;54.00;24.73;;;5.00;80.40;;;;;;4910306;29;20467;-64
2021/03/25 03:05:20;;;;;;;55.13;24.63;;;5.00;80.20;;;;;;4912479;29;20039;-64
2021/03/25 03:08:05;;;;;;;57.05;24.90;;;5.00;80.80;;;;;;4888707;29;20064;-64
2021/03/25 03:10:43;;;;;;;53.05;24.45;;;4.90;81.50;;;;;;4911773;29;20502;-64
2021/03/25 03:13:13;;;;;;;60.10;26.20;;;4.90;82.00;;;;;;4908475;29;20032;-64
2021/03/25 03:15:48;;;;;;;55.97;25.23;;;4.90;82.80;;;;;;4920518;28;20067;-64
2021/03/25 03:18:31;;;;;;;55.58;23.45;;;4.90;83.50;;;;;;4908474;29;20063;-64
2021/03/25 03:21:33;;;;;;;51.95;23.40;;;4.90;83.30;;;;;;4894061;29;20031;-65
2021/03/25 03:24:26;;;;;;;55.47;23.88;;;5.00;82.20;;;;;;4921572;29;20062;-64
2021/03/25 03:27:03;;;;;;;51.78;23.55;;;4.90;82.40;;;;;;4919662;29;20087;-64
2021/03/25 03:29:31;;;;;;;58.00;23.85;;;4.90;82.70;;;;;;4909262;29;20035;-64
2021/03/25 03:32:32;;;;;;;58.00;25.75;;;4.90;82.40;;;;;;4919813;29;20063;-64
2021/03/25 03:35:11;;;;;;;62.25;27.13;;;4.90;82.00;;;;;;4906728;29;20119;-64
2021/03/25 03:38:07;;;;;;;54.70;25.42;;;4.80;81.50;;;;;;4923302;29;20146;-64
2021/03/25 03:40:39;;;;;;;52.38;24.17;;;4.80;80.90;;;;;;4890048;29;20122;-65
2021/03/25 03:43:09;;;;;;;55.85;23.98;;;4.70;81.30;;;;;;4907455;29;20528;-64
2021/03/25 03:45:43;;;;;;;56.00;25.85;;;4.70;80.60;;;;;;4903714;29;20412;-64
2021/03/25 03:48:45;;;;;;;53.80;24.67;;;4.60;80.50;;;;;;4908840;29;20067;-64
2021/03/25 03:51:33;;;;;;;55.92;24.67;;;4.60;80.50;;;;;;4856465;29;20056;-64
2021/03/25 03:54:02;;;;;;;60.10;24.48;;;4.50;80.80;;;;;;4906969;29;20042;-64
2021/03/25 03:56:57;;;;;;;52.55;24.00;;;4.40;80.90;;;;;;4922270;29;20067;-64
2021/03/25 03:59:47;;;;;;;57.78;25.38;;;4.40;81.00;;;;;;4907495;29;20036;-64
2021/03/25 04:02:37;;;;;;;58.35;24.08;;;4.40;81.40;;;;;;4924968;29;20032;-64
2021/03/25 04:05:15;;;;;;;56.95;25.30;;;4.40;81.90;;;;;;4916301;29;20531;-64
2021/03/25 04:08:15;;;;;;;60.75;25.35;;;4.30;82.10;;;;;;4917063;29;20676;-64
2021/03/25 04:11:14;;;;;;;62.70;25.80;;;4.30;82.00;;;;;;4914716;29;20043;-64
2021/03/25 04:13:49;;;;;;;57.58;25.30;;;4.20;82.00;;;;;;4877033;29;20670;-64
2021/03/25 04:16:20;;;;;;;59.80;25.98;;;4.20;81.90;;;;;;4916029;29;20150;-64
2021/03/25 04:19:12;;;;;;;55.50;24.25;;;4.20;81.40;;;;;;4933445;29;20127;-64
2021/03/25 04:22:05;;;;;;;56.47;23.52;;;4.20;82.40;;;;;;4883607;29;20047;-64
2021/03/25 04:24:40;;;;;;;50.10;22.00;;;4.20;83.70;;;;;;4917936;29;20043;-64
2021/03/25 04:27:22;;;;;;;57.78;23.92;;;4.20;84.20;;;;;;4917427;29;20888;-64
2021/03/25 04:30:03;;;;;;;49.17;22.55;;;4.30;84.20;;;;;;4917496;29;20046;-64
2021/03/25 04:32:29;;;;;;;62.03;25.33;;;4.30;84.30;;;;;;4916337;29;20059;-64
2021/03/25 04:34:54;;;;;;;56.00;26.02;;;4.30;84.40;;;;;;4915221;29;20149;-65
2021/03/25 04:37:21;;;;;;;64.22;26.50;;;4.30;83.90;;;;;;4920424;29;20031;-64
2021/03/25 04:39:48;;;;;;;58.35;28.13;;;4.30;82.60;;;;;;4916340;29;20039;-64
2021/03/25 04:42:15;;;;;;;64.40;27.35;;;4.30;82.40;;;;;;4916476;29;20168;-64
2021/03/25 04:44:52;;;;;;;55.70;26.88;;;4.20;82.10;;;;;;4912255;29;20670;-64
2021/03/25 04:47:25;;;;;;;56.92;24.17;;;4.20;82.10;;;;;;4911520;29;20074;-64
2021/03/25 04:49:55;;;;;;;62.92;26.02;;;4.20;82.50;;;;;;4895521;29;20052;-64
2021/03/25 04:52:24;;;;;;;58.20;22.38;;;4.20;84.00;;;;;;4917449;29;20046;-64
2021/03/25 04:54:51;;;;;;;55.55;24.95;;;4.20;83.60;;;;;;4918428;29;20043;-64
2021/03/25 04:57:29;;;;;;;58.85;24.52;;;4.20;83.40;;;;;;4913001;29;20044;-65
2021/03/25 04:59:56;;;;;;;54.25;24.13;;;4.20;83.20;;;;;;4897877;29;20083;-64
2021/03/25 05:06:21;;;;;;;61.67;25.65;;;4.20;84.00;;;;;;4917376;29;20049;-65
2021/03/25 05:08:49;;;;;;;54.83;24.65;;;4.20;84.20;;;;;;4913917;29;20043;-64
2021/03/25 05:11:26;;;;;;;59.40;26.00;;;4.20;83.50;;;;;;4918136;29;20063;-65
2021/03/25 05:13:57;;;;;;;65.05;27.52;;;4.20;83.40;;;;;;4913183;29;20078;-64
2021/03/25 05:16:35;;;;;;;58.85;26.23;;;4.20;82.60;;;;;;4908658;29;20545;-64
2021/03/25 05:19:26;;;;;;;57.38;25.27;;;4.10;81.80;;;;;;4912968;29;20043;-65
2021/03/25 05:22:14;;;;;;;54.33;22.92;;;4.10;81.90;;;;;;4882840;29;20142;-66
2021/03/25 05:24:57;;;;;;;56.63;23.67;;;4.10;82.70;;;;;;4912709;29;20040;-65
2021/03/25 05:27:49;;;;;;;58.78;27.00;;;4.10;82.50;;;;;;4912222;29;20036;-64
2021/03/25 05:30:19;;;;;;;57.10;24.85;;;4.10;82.40;;;;;;4892538;29;20082;-65
2021/03/25 05:32:48;;;;;;;64.63;25.77;;;4.10;82.00;;;;;;4914112;29;20063;-66
2021/03/25 05:35:23;;;;;;;56.20;25.95;;;4.10;81.70;;;;;;4920080;29;20082;-65
2021/03/25 05:37:49;;;;;;;60.58;25.45;;;4.10;81.60;;;;;;4917903;29;20047;-65
2021/03/25 05:40:24;;;;;;;62.80;25.98;;;4.10;81.80;;;;;;4909115;29;20933;-65
2021/03/25 05:42:57;;;;;;;64.05;25.92;;;4.10;82.30;;;;;;4918567;29;20040;-66
2021/03/25 05:45:47;;;;;;;60.03;26.35;;;4.20;82.60;;;;;;4908169;29;20075;-65
2021/03/25 05:48:39;;;;;;;58.65;24.10;;;4.30;82.90;;;;;;4918125;29;20032;-65
2021/03/25 05:51:44;;;;;;;55.75;25.30;;;4.30;83.00;;;;;;4898238;29;20068;-65
2021/03/25 05:54:35;;;;;;;55.55;23.13;;;4.40;82.50;;;;;;4913558;29;20046;-65
2021/03/25 05:57:32;;;;;;;57.25;24.77;;;4.50;82.60;;;;;;4864115;29;20131;-69
2021/03/25 06:00:09;;;;;;;59.10;25.00;;;4.50;83.30;;;;;;4924917;29;20635;-65
2021/03/25 06:02:52;;;;;;;54.65;24.98;;;4.60;83.00;;;;;;4918352;29;20083;-65
2021/03/25 06:05:18;;;;;;;55.17;23.27;;;4.70;83.00;;;;;;4911598;29;20032;-66
2021/03/25 06:08:10;;;;;;;53.22;23.60;;;4.80;82.40;;;;;;4914681;29;20040;-65
2021/03/25 06:11:14;;;;;;;57.28;25.25;;;4.90;82.20;;;;;;4902650;29;20054;-66
2021/03/25 06:13:59;;;;;;;53.75;23.25;;;5.10;82.80;;;;;;4919334;29;20040;-65
2021/03/25 06:16:40;;;;;;;64.10;27.08;;;5.20;82.90;;;;;;4914307;29;20134;-66
2021/03/25 06:19:29;;;;;;;61.53;26.58;;;5.30;82.00;;;;;;4921185;29;20688;-65
2021/03/25 06:22:19;;;;;;;57.78;26.25;;;5.40;82.40;;;;;;4910733;29;20416;-65
2021/03/25 06:25:22;;;;;;;55.20;24.15;;;5.50;82.40;;;;;;4911551;29;20923;-65
2021/03/25 06:28:17;;;;;;;58.15;24.10;;;5.70;83.00;;;;;;4905749;29;20079;-61
2021/03/25 06:31:02;;;;;;;53.15;22.40;;;5.90;82.90;;;;;;4899292;29;20479;-60
2021/03/25 06:33:34;;;;;;;47.95;21.48;;;6.10;82.90;;;;;;4907744;29;20052;-60
2021/03/25 06:36:09;;;;;;;49.42;21.50;;;6.30;82.30;;;;;;4908680;29;20043;-61
2021/03/25 06:38:41;;;;;;;49.67;23.30;;;6.50;81.70;;;;;;4911294;29;20479;-61
2021/03/25 06:41:14;;;;;;;56.28;25.00;;;6.70;81.20;;;;;;4930334;29;20043;-61
2021/03/25 06:43:52;;;;;;;61.70;25.55;;;6.90;80.50;;;;;;4902697;29;20057;-61
2021/03/25 06:46:30;;;;;;;52.28;23.60;;;7.10;79.90;;;;;;4913304;29;20118;-61
2021/03/25 06:48:59;;;;;;;52.70;24.45;;;7.20;79.00;;;;;;4900228;29;20113;-61
2021/03/25 06:51:26;;;;;;;57.47;25.90;;;7.40;78.50;;;;;;4913038;29;20048;-60
2021/03/25 06:54:11;;;;;;;49.75;24.08;;;7.60;78.00;;;;;;4910984;29;20063;-60
2021/03/25 06:56:40;;;;;;;53.28;24.25;;;7.70;77.40;;;;;;4904581;29;20091;-61
2021/03/25 06:59:14;;;;;;;55.78;25.60;;;7.90;76.30;;;;;;4911499;29;20039;-61
2021/03/25 07:01:43;;;;;;;52.72;24.02;;;8.10;75.40;;;;;;4911535;29;20038;-61
2021/03/25 07:04:23;;;;;;;57.42;25.55;;;8.20;75.50;;;;;;4899563;29;20036;-61
2021/03/25 07:06:50;;;;;;;57.67;25.20;;;8.70;74.00;;;;;;4912797;29;20579;-65
2021/03/25 07:09:20;;;;;;;46.83;22.63;;;9.20;72.20;;;;;;4904542;29;20036;-67
2021/03/25 07:11:46;;;;;;;48.90;24.60;;;9.70;70.40;;;;;;4900308;29;20044;-71
2021/03/25 07:14:29;;;;;;;52.20;22.77;;;10.30;68.60;;;;;;4912815;29;20083;-65
2021/03/25 07:16:56;;;;;;;47.20;23.67;;;10.90;66.50;;;;;;4901365;29;20036;-65
2021/03/25 07:19:22;;;;;;;45.10;22.58;;;11.20;63.80;;;;;;4912149;29;20154;-65
2021/03/25 07:21:50;;;;;;;44.53;23.42;;;11.40;63.90;;;;;;4912788;29;20042;-66
2021/03/25 07:24:32;;;;;;;48.10;25.00;;;11.50;64.20;;;;;;4909153;29;20417;-66
2021/03/25 07:27:09;;;;;;;51.75;23.85;;;11.60;63.80;;;;;;4908538;29;20067;-65
2021/03/25 07:29:38;;;;;;;46.97;24.25;;;11.60;63.70;;;;;;4909793;29;20505;-66
2021/03/25 07:32:04;;;;;;;51.05;24.65;;;11.80;63.20;;;;;;4909696;29;20123;-66
2021/03/25 07:34:41;;;;;;;52.53;25.73;;;11.90;63.20;;;;;;4909477;29;20054;-65
2021/03/25 07:37:09;;;;;;;54.15;25.60;;;12.00;62.40;;;;;;4902589;29;20036;-66
2021/03/25 07:39:48;;;;;;;50.53;25.58;;;12.00;63.50;;;;;;4903689;29;20068;-65
2021/03/25 07:42:29;;;;;;;53.60;26.50;;;12.00;63.10;;;;;;4897835;29;20044;-65
2021/03/25 07:45:21;;;;;;;52.10;25.63;;;12.30;62.30;;;;;;4911482;29;20134;-66
2021/03/25 07:47:49;;;;;;;50.40;25.08;;;12.60;61.90;;;;;;4907121;29;20043;-66
2021/03/25 07:50:26;;;;;;;47.55;23.95;;;13.00;60.20;;;;;;4901593;29;20158;-66
2021/03/25 07:52:53;;;;;;;52.97;26.45;;;13.40;58.90;;;;;;4907324;29;20098;-65
2021/03/25 07:55:18;;;;;;;49.28;25.65;;;13.70;58.70;;;;;;4909180;29;20043;-65
2021/03/25 07:57:46;;;;;;;48.33;26.35;;;14.10;57.60;;;;;;4912925;29;20058;-65
2021/03/25 08:00:18;;;;;;;48.65;24.52;;;14.50;56.30;;;;;;4914547;29;20111;-65
2021/03/25 08:02:44;;;;;;;50.85;26.55;;;14.80;55.50;;;;;;4930908;29;20083;-65
2021/03/25 08:05:29;;;;;;;56.65;28.83;;;14.80;55.80;;;;;;4927347;28;20128;-65
2021/03/25 08:07:59;;;;;;;52.47;25.05;;;15.00;54.30;;;;;;4915271;29;20076;-66
2021/03/25 08:10:40;;;;;;;54.78;26.92;;;15.00;55.50;;;;;;4912462;29;20020;-65
2021/03/25 08:13:28;;;;;;;53.17;26.63;;;15.10;55.30;;;;;;4906011;29;20036;-65
2021/03/25 08:16:04;;;;;;;55.38;28.63;;;15.30;54.90;;;;;;4903876;29;20032;-66
2021/03/25 08:18:43;;;;;;;49.80;26.02;;;15.50;53.20;;;;;;4905876;29;20578;-67
2021/03/25 08:21:37;;;;;;;52.90;28.85;;;15.60;54.50;;;;;;4904732;29;20047;-66
2021/03/25 08:24:35;;;;;;;52.63;26.70;;;15.60;52.60;;;;;;4905816;29;20692;-65
2021/03/25 08:27:01;;;;;;;51.25;26.45;;;15.60;54.00;;;;;;4901370;29;20118;-66
2021/03/25 08:30:04;;;;;;;52.13;26.30;;;15.50;53.80;;;;;;4905628;29;20036;-67
2021/03/25 08:32:57;;;;;;;52.70;27.67;;;15.60;54.40;;;;;;4903428;29;20103;-66
2021/03/25 08:35:36;;;;;;;53.47;29.27;;;15.70;53.70;;;;;;4900526;29;20046;-66
2021/03/25 08:38:39;;;;;;;54.10;28.83;;;15.80;53.30;;;;;;4908717;29;20043;-67
2021/03/25 08:41:12;;;;;;;54.80;27.92;;;16.00;51.90;;;;;;4911315;29;20120;-66
2021/03/25 08:43:57;;;;;;;57.80;29.48;;;16.10;52.80;;;;;;4890201;29;20043;-65
2021/03/25 08:46:50;;;;;;;54.80;28.85;;;16.40;52.70;;;;;;4908579;29;20126;-66
2021/03/25 08:49:45;;;;;;;58.25;31.17;;;16.50;52.70;;;;;;4915740;29;20060;-66
2021/03/25 08:52:15;;;;;;;56.88;29.35;;;16.30;52.60;;;;;;4895376;29;20764;-66
2021/03/25 08:55:02;;;;;;;55.38;29.52;;;16.20;53.40;;;;;;4918463;29;20477;-66
2021/03/25 08:57:37;;;;;;;57.97;30.63;;;16.30;52.80;;;;;;4915396;29;20047;-66
2021/03/25 09:00:18;;;;;;;62.70;32.45;;;16.50;52.10;;;;;;4903680;29;20413;-69
2021/03/25 09:02:51;;;;;;;72.30;38.75;;;17.10;51.30;;;;;;4910151;29;20076;-67
2021/03/25 09:05:22;;;;;;;64.45;33.70;;;17.60;49.80;;;;;;4913629;29;20059;-67
2021/03/25 09:07:49;;;;;;;60.75;33.47;;;17.70;49.40;;;;;;4927785;29;20068;-66
2021/03/25 09:10:43;;;;;;;62.03;33.20;;;17.80;48.40;;;;;;4913589;29;20044;-66
2021/03/25 09:13:20;;;;;;;61.95;33.17;;;18.10;49.20;;;;;;4914682;29;20043;-66
2021/03/25 09:15:47;;;;;;;58.47;32.65;;;18.30;48.80;;;;;;4911356;29;20090;-67
2021/03/25 09:18:20;;;;;;;58.83;31.85;;;18.40;48.10;;;;;;4919944;29;20215;-66
2021/03/25 09:20:50;;;;;;;56.85;31.20;;;18.60;47.90;;;;;;4918491;29;20094;-66
2021/03/25 09:23:34;;;;;;;61.15;34.08;;;18.50;48.10;;;;;;4920956;29;20094;-66
2021/03/25 09:26:09;;;;;;;56.53;31.90;;;18.50;47.50;;;;;;4918857;29;20044;-65
2021/03/25 09:28:53;;;;;;;59.53;32.88;;;18.40;47.90;;;;;;4908405;29;20123;-66
2021/03/25 09:31:21;;;;;;;61.55;34.10;;;18.50;47.50;;;;;;4914081;29;20046;-67
2021/03/25 09:33:55;;;;;;;61.45;33.13;;;18.80;47.00;;;;;;4897442;29;20048;-67
2021/03/25 09:36:20;;;;;;;61.40;34.17;;;19.00;46.50;;;;;;4908882;29;20043;-66
2021/03/25 09:38:50;;;;;;;61.25;33.67;;;18.90;46.10;;;;;;4910597;29;20042;-67
2021/03/25 09:41:19;;;;;;;62.83;33.85;;;18.60;46.40;;;;;;4912246;29;20032;-66
2021/03/25 09:43:45;;;;;;;54.92;31.15;;;18.00;48.70;;;;;;4911274;29;20099;-65
2021/03/25 09:46:25;;;;;;;62.60;34.13;;;17.80;50.60;;;;;;4913093;29;20040;-66
2021/03/25 09:48:53;;;;;;;56.17;31.95;;;17.90;48.90;;;;;;4906796;29;20153;-66
2021/03/25 09:51:23;;;;;;;56.70;31.92;;;18.00;48.90;;;;;;4901661;29;20032;-67
2021/03/25 09:53:57;;;;;;;59.15;31.33;;;18.00;49.00;;;;;;4914853;29;20047;-66
2021/03/25 09:56:29;;;;;;;58.83;32.63;;;18.00;48.20;;;;;;4918732;29;20292;-67
2021/03/25 09:58:56;;;;;;;58.28;32.80;;;18.00;48.70;;;;;;4908277;29;20666;-66
2021/03/25 10:02:00;;;;;;;55.00;33.03;;;18.20;50.30;;;;;;4911077;29;20095;-66
2021/03/25 10:04:32;;;;;;;53.92;29.80;;;18.40;50.20;;;;;;4801728;29;20042;-66
2021/03/25 10:07:21;;;;;;;51.28;29.42;;;18.40;48.30;;;;;;4812695;29;20042;-66
2021/03/25 10:09:49;;;;;;;51.58;28.80;;;18.50;48.80;;;;;;4873898;29;20039;-66
2021/03/25 10:12:46;;;;;;;56.10;32.28;;;18.90;46.70;;;;;;4906764;29;20051;-66
2021/03/25 10:15:30;;;;;;;53.47;31.80;;;19.30;47.70;;;;;;4906876;29;20043;-66
2021/03/25 10:17:59;;;;;;;51.97;29.50;;;19.90;46.50;;;;;;4911695;29;20787;-65
2021/03/25 10:20:43;;;;;;;54.72;30.20;;;20.30;45.60;;;;;;4899523;29;20706;-66
2021/03/25 10:23:29;;;;;;;52.22;32.03;;;20.30;43.80;;;;;;4913708;29;20460;-65
2021/03/25 10:26:04;;;;;;;54.78;31.83;;;19.80;45.30;;;;;;4906335;29;20469;-66
2021/03/25 10:28:33;;;;;;;59.22;32.45;;;19.30;46.50;;;;;;4907798;29;20059;-66
2021/03/25 10:31:06;;;;;;;56.42;31.80;;;18.80;47.60;;;;;;4910221;29;20593;-67
2021/03/25 10:33:35;;;;;;;62.03;34.50;;;18.50;47.50;;;;;;4905408;29;20054;-65
2021/03/25 10:36:25;;;;;;;53.90;30.67;;;18.20;50.10;;;;;;4911171;29;20044;-67
2021/03/25 10:38:59;;;;;;;56.72;31.38;;;17.90;49.50;;;;;;4903807;29;20054;-66
2021/03/25 10:41:32;;;;;;;59.00;33.97;;;17.70;50.30;;;;;;4917886;29;20371;-66
2021/03/25 10:43:58;;;;;;;50.83;30.17;;;17.60;51.10;;;;;;4915599;29;20542;-66
2021/03/25 10:46:31;;;;;;;52.65;29.67;;;17.40;50.80;;;;;;4904069;29;20036;-65
2021/03/25 10:49:02;;;;;;;51.38;30.70;;;17.30;50.30;;;;;;4900452;29;20054;-65
2021/03/25 10:51:31;;;;;;;56.45;31.48;;;17.20;49.80;;;;;;4910658;29;20050;-65
2021/03/25 10:54:01;;;;;;;58.17;33.08;;;17.10;51.30;;;;;;4910324;29;20408;-65
2021/03/25 10:56:29;;;;;;;59.13;31.77;;;17.00;50.70;;;;;;4891013;29;20036;-66
2021/03/25 10:59:03;;;;;;;57.22;31.38;;;16.90;50.90;;;;;;4909173;29;20048;-66
2021/03/25 11:01:31;;;;;;;62.42;32.92;;;16.80;51.80;;;;;;4913481;29;20053;-65
2021/03/25 11:03:59;;;;;;;54.63;28.55;;;16.70;51.20;;;;;;4914658;29;20067;-65
2021/03/25 11:06:30;;;;;;;59.88;31.02;;;16.70;51.10;;;;;;4905968;29;20051;-65
2021/03/25 11:09:15;;;;;;;56.05;30.20;;;16.80;51.30;;;;;;4897167;29;20039;-65
2021/03/25 11:11:42;;;;;;;57.45;29.77;;;16.90;52.10;;;;;;4900544;29;20047;-66
2021/03/25 11:14:33;;;;;;;57.15;30.88;;;17.00;50.90;;;;;;4902560;29;20544;-65
2021/03/25 11:17:24;;;;;;;59.45;30.70;;;17.00;51.10;;;;;;4894326;29;20040;-66
2021/03/25 11:19:53;;;;;;;50.78;27.70;;;17.00;51.30;;;;;;4911457;29;20039;-67
2021/03/25 11:22:21;;;;;;;55.88;28.92;;;16.90;49.70;;;;;;4908063;29;20069;-65
2021/03/25 11:24:49;;;;;;;57.63;28.90;;;16.90;50.10;;;;;;4904547;29;20123;-65
2021/03/25 11:27:18;;;;;;;51.63;27.65;;;16.90;51.10;;;;;;4904959;29;20047;-66
2021/03/25 11:29:46;;;;;;;57.33;29.42;;;16.90;49.30;;;;;;4906148;29;20569;-65
2021/03/25 11:32:25;;;;;;;56.72;29.08;;;17.00;49.60;;;;;;4909009;29;20032;-66
2021/03/25 11:34:54;;;;;;;52.45;28.95;;;17.10;47.90;;;;;;4899636;29;20035;-66
2021/03/25 11:37:33;;;;;;;57.53;29.23;;;17.10;48.60;;;;;;4900639;29;20071;-67
2021/03/25 11:40:13;;;;;;;57.03;28.65;;;17.20;49.60;;;;;;4911696;29;20044;-67
2021/03/25 11:42:41;;;;;;;52.55;28.95;;;17.20;50.20;;;;;;4906619;29;20079;-67
2021/03/25 11:45:28;;;;;;;57.70;29.80;;;17.30;48.10;;;;;;4910701;29;20036;-66
2021/03/25 11:47:53;;;;;;;43.83;22.75;;;17.30;48.40;;;;;;4893457;29;20709;-67
2021/03/25 11:50:19;;;;;;;45.72;24.48;;;17.30;50.20;;;;;;4913184;29;20047;-67
2021/03/25 11:52:51;;;;;;;46.95;27.15;;;17.30;50.70;;;;;;4908269;29;20099;-65
2021/03/25 11:55:25;;;;;;;47.35;27.10;;;17.60;50.60;;;;;;4905862;29;20091;-65
2021/03/25 11:57:53;;;;;;;47.63;27.95;;;17.80;49.10;;;;;;4912425;29;20106;-66
2021/03/25 12:00:24;;;;;;;51.47;28.20;;;18.00;48.50;;;;;;4916595;29;20042;-66
2021/03/25 12:02:55;;;;;;;62.35;29.23;;;18.30;48.00;;;;;;4917482;29;20039;-66
2021/03/25 12:05:30;;;;;;;46.53;24.75;;;18.40;47.10;;;;;;4900211;29;20040;-65
2021/03/25 12:08:30;;;;;;;53.00;28.15;;;18.50;47.10;;;;;;4915672;29;20027;-65
2021/03/25 12:10:59;;;;;;;49.00;25.98;;;18.50;46.60;;;;;;4903542;29;20044;-66
2021/03/25 12:13:24;;;;;;;48.33;25.77;;;18.50;47.40;;;;;;4908393;29;20459;-65
2021/03/25 12:15:51;;;;;;;45.35;25.50;;;18.40;46.60;;;;;;4907269;29;20050;-66
2021/03/25 12:18:27;;;;;;;38.92;21.15;;;18.30;47.30;;;;;;4911750;29;20115;-66
2021/03/25 12:20:57;;;;;;;54.95;29.08;;;18.10;48.60;;;;;;4894156;29;20036;-67
2021/03/25 12:23:26;;;;;;;50.15;27.83;;;18.30;46.60;;;;;;4910641;29;20031;-65
2021/03/25 12:25:54;;;;;;;48.05;26.60;;;18.10;47.30;;;;;;4916348;29;20172;-66
2021/03/25 12:28:20;;;;;;;55.90;30.48;;;18.10;47.00;;;;;;4920004;29;20032;-67
2021/03/25 12:30:46;;;;;;;54.72;31.40;;;18.00;47.40;;;;;;4900486;29;20087;-66
2021/03/25 12:33:30;;;;;;;56.55;31.60;;;18.00;47.10;;;;;;4904379;29;20123;-67
2021/03/25 12:35:59;;;;;;;51.58;29.95;;;18.10;46.80;;;;;;4916258;29;20059;-66
2021/03/25 12:38:26;;;;;;;59.60;30.17;;;18.20;46.30;;;;;;4908464;29;20111;-67
2021/03/25 12:40:52;;;;;;;56.15;29.98;;;18.10;48.00;;;;;;4904149;29;20040;-67
2021/03/25 12:43:22;;;;;;;44.47;26.17;;;18.20;47.40;;;;;;4924507;29;20471;-66
2021/03/25 12:45:51;;;;;;;46.28;26.17;;;18.30;46.10;;;;;;4908383;29;20039;-67
2021/03/25 12:48:22;;;;;;;51.00;27.00;;;18.40;46.00;;;;;;4915683;29;20047;-61
2021/03/25 12:50:50;;;;;;;50.35;27.58;;;18.30;47.30;;;;;;4916910;29;20873;-61
2021/03/25 12:53:17;;;;;;;44.47;26.73;;;18.50;47.00;;;;;;4922699;29;20852;-67
2021/03/25 12:55:43;;;;;;;54.28;28.65;;;18.60;45.60;;;;;;4921999;29;20046;-66
2021/03/25 12:58:26;;;;;;;52.63;29.05;;;18.60;46.10;;;;;;4916241;29;20035;-62
2021/03/25 13:00:55;;;;;;;47.35;25.33;;;18.70;45.90;;;;;;4919382;29;20119;-61
2021/03/25 13:03:21;;;;;;;46.78;25.45;;;18.70;44.00;;;;;;4914483;29;20075;-62
2021/03/25 13:05:46;;;;;;;48.42;26.83;;;18.70;44.60;;;;;;4914065;29;20179;-62
2021/03/25 13:08:12;;;;;;;56.42;28.02;;;18.70;44.60;;;;;;4915827;29;20056;-62
2021/03/25 13:10:40;;;;;;;48.63;25.95;;;18.80;44.50;;;;;;4927977;29;20796;-62
2021/03/25 13:13:06;;;;;;;50.95;29.90;;;18.80;44.80;;;;;;4914257;29;20063;-62
2021/03/25 13:15:33;;;;;;;54.83;29.58;;;18.80;47.60;;;;;;4916914;29;20120;-62
2021/03/25 13:17:59;;;;;;;62.17;34.15;;;18.70;45.40;;;;;;4907442;29;20040;-61
2021/03/25 13:20:26;;;;;;;48.90;27.63;;;18.50;47.00;;;;;;4906782;29;20071;-62